This is the latest recevied weather packets stored in our database for station/object KB1FCH. If no packets are shown the sender has not sent any weather packets the latest 10 day(s).
| Time | Temp. | Humidity | Pressure | Rain* | Wind** | Luminosity | Snow |
|---|---|---|---|---|---|---|---|
| 1777516275 | 15.56° C | 76% | 1003.8 hPa | 0 mm | - | 13 W/m² | - |
| 1777513896 | 16.67° C | 71% | 1003.9 hPa | 0 mm | - | 20 W/m² | - |
| 1777512015 | 17.78° C | 67% | 1004 hPa | 0 mm | - | 29 W/m² | - |
| 1777507875 | 19.44° C | 62% | 1004.1 hPa | 0 mm | - | 307 W/m² | - |
| 1777504895 | 18.33° C | 61% | 1004.4 hPa | 0 mm | - | 125 W/m² | - |
| 1777488695 | 14.44° C | 71% | 1006.4 hPa | 0 mm | - | 37 W/m² | - |
| 1777486875 | 13.33° C | 73% | 1006.6 hPa | 0 mm | - | 134 W/m² | - |
| 1777486275 | 13.33° C | 74% | 1006.7 hPa | 0 mm | - | 32 W/m² | - |
| 1777485697 | 13.33° C | 73% | 1006.7 hPa | 0 mm | - | 31 W/m² | - |
| 1777485035 | 12.78° C | 75% | 1006.8 hPa | 0 mm | - | 65 W/m² | - |
| 1777477819 | 10° C | 85% | 1007.6 hPa | 0 mm | - | 199 W/m² | - |
| 1777475417 | 8.89° C | 88% | 1007.8 hPa | 0 mm | - | 25 W/m² | - |
| 1777474215 | 7.78° C | 95% | 1007.8 hPa | 0 mm | - | 23 W/m² | - |
| 1777471275 | 6.67° C | 97% | 1007.6 hPa | 0 mm | - | 15 W/m² | - |
| 1777470075 | 6.67° C | 96% | 1007.4 hPa | 0 mm | - | 11 W/m² | - |
| 1777468875 | 6.67° C | 96% | 1007.5 hPa | 0 mm | - | 6 W/m² | - |
| 1777464094 | 7.78° C | 96% | 1007 hPa | 0 mm | - | 0 W/m² | - |
| 1777460415 | 8.33° C | 96% | 1007 hPa | 0 mm | - | 0 W/m² | - |
| 1777459874 | 8.33° C | 96% | 1007.1 hPa | 0 mm | - | 0 W/m² | - |
| 1777459275 | 8.33° C | 96% | 1006.9 hPa | 0 mm | - | 0 W/m² | - |
| 1777456275 | 8.33° C | 96% | 1007 hPa | 0 mm | - | 0 W/m² | - |
| 1777442475 | 9.44° C | 92% | 1006.5 hPa | 0 mm | - | 0 W/m² | - |
| 1777440675 | 9.44° C | 92% | 1006.3 hPa | 0 mm | - | 0 W/m² | - |
| 1777435875 | 10° C | 88% | 1006 hPa | 0 mm | - | 0 W/m² | - |
| 1777435215 | 10° C | 88% | 1006 hPa | 0 mm | - | 0 W/m² | - |
* Rain latest hour (hover to see other rain measurements)
** Current wind speed in m/s (hover to see current wind gust speed)